createdAt,value
2022-08-17T00:00:35.006Z,4.70
2022-08-17T00:03:19.095Z,4.38
2022-08-17T00:06:08.670Z,4.80
2022-08-17T00:11:25.282Z,4.75
2022-08-17T00:13:59.378Z,5.25
2022-08-17T00:16:56.345Z,4.70
2022-08-17T00:19:26.470Z,3.90
2022-08-17T00:22:31.938Z,4.38
2022-08-17T00:24:46.027Z,4.25
2022-08-17T00:27:13.876Z,4.70
2022-08-17T00:29:42.380Z,4.68
2022-08-17T00:33:15.409Z,5.07
2022-08-17T00:34:58.292Z,4.78
2022-08-17T00:37:26.058Z,4.85
2022-08-17T00:39:53.837Z,4.55
2022-08-17T00:42:21.590Z,4.90
2022-08-17T00:44:49.409Z,4.65
2022-08-17T00:47:17.358Z,4.43
2022-08-17T00:49:45.223Z,5.28
2022-08-17T00:52:20.641Z,5.28
2022-08-17T00:54:54.105Z,4.80
2022-08-17T00:57:31.233Z,4.80
2022-08-17T01:00:14.634Z,4.68
2022-08-17T01:02:46.386Z,4.70
2022-08-17T01:05:23.831Z,4.53
2022-08-17T01:07:54.358Z,4.90
2022-08-17T01:11:00.335Z,5.30
2022-08-17T01:13:42.562Z,4.97
2022-08-17T01:16:21.864Z,4.50
2022-08-17T01:18:54.402Z,4.72
2022-08-17T01:21:40.713Z,4.30
2022-08-17T01:24:08.808Z,4.03
2022-08-17T01:26:40.425Z,4.25
2022-08-17T01:29:08.577Z,4.15
2022-08-17T01:31:43.196Z,4.00
2022-08-17T01:34:14.531Z,4.63
2022-08-17T01:36:47.317Z,4.25
2022-08-17T01:39:40.652Z,4.22
2022-08-17T01:42:23.930Z,4.18
2022-08-17T01:47:25.201Z,4.13
2022-08-17T01:49:52.984Z,4.40
2022-08-17T01:52:22.141Z,4.63
2022-08-17T01:54:52.457Z,4.55
2022-08-17T01:57:20.299Z,4.30
2022-08-17T01:59:48.438Z,4.68
2022-08-17T02:02:30.475Z,3.70
2022-08-17T02:07:28.351Z,4.55
2022-08-17T02:09:56.693Z,4.72
2022-08-17T02:12:39.479Z,3.88
2022-08-17T02:15:10.442Z,4.00
2022-08-17T02:17:40.760Z,4.18
2022-08-17T02:20:10.859Z,4.25
2022-08-17T02:22:42.345Z,4.93
2022-08-17T02:25:15.143Z,6.15
2022-08-17T02:27:43.294Z,7.65
2022-08-17T02:31:00.666Z,6.70
2022-08-17T02:33:04.212Z,7.80
2022-08-17T02:35:35.193Z,7.40
2022-08-17T02:38:06.268Z,6.97
2022-08-17T02:40:35.714Z,6.00
2022-08-17T02:43:05.347Z,4.50
2022-08-17T02:45:33.373Z,4.38
2022-08-17T02:48:01.581Z,4.13
2022-08-17T02:50:29.772Z,4.60
2022-08-17T02:53:02.236Z,4.22
2022-08-17T02:55:37.267Z,4.25
2022-08-17T02:58:05.860Z,4.88
2022-08-17T03:00:41.109Z,4.50
2022-08-17T03:03:11.290Z,4.00
2022-08-17T03:05:39.998Z,4.20
2022-08-17T03:08:10.481Z,4.00
2022-08-17T03:10:42.690Z,4.60
2022-08-17T03:13:12.970Z,3.90
2022-08-17T03:15:45.221Z,4.22
2022-08-17T03:18:20.102Z,3.85
2022-08-17T03:21:01.778Z,4.28
2022-08-17T03:23:31.298Z,4.10
2022-08-17T03:28:28.716Z,4.85
2022-08-17T03:30:56.661Z,4.30
2022-08-17T03:33:24.563Z,4.47
2022-08-17T03:35:52.702Z,3.75
2022-08-17T03:38:21.357Z,3.97
2022-08-17T03:40:56.852Z,3.97
2022-08-17T03:43:31.612Z,3.70
2022-08-17T03:46:28.659Z,3.90
2022-08-17T03:49:26.835Z,4.07
2022-08-17T03:52:16.010Z,3.63
2022-08-17T03:55:03.879Z,3.75
2022-08-17T03:57:32.597Z,3.40
2022-08-17T04:00:00.508Z,4.50
2022-08-17T04:02:34.000Z,4.00
2022-08-17T04:05:01.970Z,3.88
2022-08-17T04:07:31.873Z,3.88
2022-08-17T04:10:00.348Z,3.60
2022-08-17T04:12:42.254Z,4.28
2022-08-17T04:15:12.690Z,3.88
2022-08-17T04:17:40.802Z,3.90
2022-08-17T04:20:09.653Z,3.90
2022-08-17T04:22:37.650Z,3.53
2022-08-17T04:25:17.276Z,4.30
2022-08-17T04:27:45.155Z,3.70
2022-08-17T04:30:13.605Z,4.20
2022-08-17T04:33:07.223Z,3.92
2022-08-17T04:35:43.563Z,3.25
2022-08-17T04:38:18.031Z,3.88
2022-08-17T04:41:04.958Z,3.95
2022-08-17T04:43:35.354Z,3.50
2022-08-17T04:46:17.149Z,5.30
2022-08-17T04:48:57.812Z,3.63
2022-08-17T04:51:35.260Z,3.58
2022-08-17T04:54:09.401Z,3.78
2022-08-17T04:56:38.839Z,3.88
2022-08-17T04:59:17.995Z,4.15
2022-08-17T05:01:49.031Z,4.15
2022-08-17T05:04:33.910Z,4.15
2022-08-17T05:07:04.736Z,3.97
2022-08-17T05:09:32.760Z,4.25
2022-08-17T05:12:04.781Z,4.10
2022-08-17T05:14:33.717Z,4.03
2022-08-17T05:17:09.624Z,3.75
2022-08-17T05:19:39.583Z,4.15
2022-08-17T05:22:07.845Z,3.92
2022-08-17T05:24:43.141Z,4.57
2022-08-17T05:27:19.062Z,4.18
2022-08-17T05:29:47.126Z,3.97
2022-08-17T05:32:38.034Z,4.25
2022-08-17T05:35:04.195Z,4.45
2022-08-17T05:37:32.011Z,4.10
2022-08-17T05:40:00.040Z,4.30
2022-08-17T05:42:27.989Z,4.65
2022-08-17T05:44:58.092Z,4.60
2022-08-17T05:49:55.030Z,4.32
2022-08-17T05:53:10.249Z,3.90
2022-08-17T05:55:52.924Z,4.35
2022-08-17T05:58:39.482Z,3.42
2022-08-17T06:01:32.395Z,4.03
2022-08-17T06:04:41.028Z,3.50
2022-08-17T06:07:50.195Z,3.70
2022-08-17T06:11:05.427Z,3.58
2022-08-17T06:13:39.089Z,4.47
2022-08-17T06:16:34.010Z,3.70
2022-08-17T06:19:33.644Z,3.90
2022-08-17T06:22:05.858Z,3.78
2022-08-17T06:24:42.940Z,3.50
2022-08-17T06:27:32.013Z,3.53
2022-08-17T06:30:16.112Z,3.20
2022-08-17T06:32:48.637Z,3.60
2022-08-17T06:35:44.605Z,3.70
2022-08-17T06:39:01.917Z,3.85
2022-08-17T06:41:45.634Z,3.78
2022-08-17T06:44:43.583Z,4.53
2022-08-17T06:47:53.283Z,4.07
2022-08-17T06:50:51.326Z,3.33
2022-08-17T06:53:31.964Z,4.47
2022-08-17T06:56:54.631Z,4.25
2022-08-17T06:59:53.232Z,3.35
2022-08-17T07:02:52.554Z,3.60
2022-08-17T07:05:36.796Z,3.72
2022-08-17T07:08:30.035Z,4.72
2022-08-17T07:11:09.819Z,5.38
2022-08-17T07:14:17.120Z,4.18
2022-08-17T07:16:50.923Z,3.97
2022-08-17T07:19:23.802Z,3.97
2022-08-17T07:22:50.350Z,4.05
2022-08-17T07:25:22.590Z,3.97
2022-08-17T07:28:02.488Z,3.50
2022-08-17T07:31:01.030Z,4.20
2022-08-17T07:33:35.010Z,3.38
2022-08-17T07:36:03.409Z,3.67
2022-08-17T07:38:34.363Z,3.92
2022-08-17T07:41:08.231Z,4.57
2022-08-17T07:43:42.249Z,3.75
2022-08-17T07:46:55.266Z,3.72
2022-08-17T07:49:32.904Z,3.58
2022-08-17T07:52:51.409Z,3.97
2022-08-17T07:55:35.112Z,3.75
2022-08-17T07:58:03.773Z,4.15
2022-08-17T08:00:33.772Z,4.35
2022-08-17T08:03:28.539Z,3.90
2022-08-17T08:06:02.404Z,3.60
2022-08-17T08:08:35.732Z,3.55
2022-08-17T08:11:15.538Z,3.60
2022-08-17T08:13:46.148Z,3.20
2022-08-17T08:16:17.026Z,4.25
2022-08-17T08:18:56.891Z,3.63
2022-08-17T08:21:51.543Z,3.35
2022-08-17T08:24:37.197Z,4.25
2022-08-17T08:27:28.842Z,3.95
2022-08-17T08:30:21.604Z,3.75
2022-08-17T08:33:28.969Z,3.60
2022-08-17T08:37:15.845Z,3.40
2022-08-17T08:39:48.113Z,4.32
2022-08-17T08:42:37.379Z,3.90
2022-08-17T08:45:14.111Z,3.30
2022-08-17T08:47:53.994Z,3.35
2022-08-17T08:50:48.880Z,3.45
2022-08-17T08:54:16.658Z,3.53
2022-08-17T08:57:29.210Z,3.58
2022-08-17T09:00:24.857Z,3.50
2022-08-17T09:03:52.706Z,3.40
2022-08-17T09:06:59.577Z,3.38
2022-08-17T09:09:59.411Z,3.83
2022-08-17T09:12:45.259Z,2.97
2022-08-17T09:15:25.761Z,3.25
2022-08-17T09:19:00.554Z,3.42
2022-08-17T09:24:12.816Z,3.15
2022-08-17T09:27:13.498Z,3.13
2022-08-17T09:29:59.167Z,2.92
2022-08-17T09:32:58.962Z,3.13
2022-08-17T09:35:45.154Z,3.05
2022-08-17T09:38:32.634Z,2.95
2022-08-17T09:41:37.245Z,3.20
2022-08-17T09:44:23.244Z,3.17
2022-08-17T09:47:17.551Z,2.67
2022-08-17T09:50:12.976Z,3.22
2022-08-17T09:55:10.373Z,3.00
2022-08-17T09:58:05.330Z,3.05
2022-08-17T10:00:39.496Z,3.22
2022-08-17T10:03:49.204Z,3.10
2022-08-17T10:06:35.558Z,3.15
2022-08-17T10:09:22.577Z,2.58
2022-08-17T10:12:30.103Z,3.55
2022-08-17T10:15:22.516Z,3.22
2022-08-17T10:18:08.569Z,3.40
2022-08-17T10:21:30.661Z,3.25
2022-08-17T10:25:02.021Z,3.63
2022-08-17T10:27:52.779Z,3.10
2022-08-17T10:30:26.775Z,3.13
2022-08-17T10:33:03.053Z,3.20
2022-08-17T10:36:01.651Z,3.53
2022-08-17T10:38:48.533Z,3.30
2022-08-17T10:41:43.229Z,2.83
2022-08-17T10:44:56.556Z,2.80
2022-08-17T10:47:27.128Z,2.63
2022-08-17T10:49:56.144Z,3.30
2022-08-17T10:52:24.966Z,3.33
2022-08-17T10:54:58.742Z,3.42
2022-08-17T10:57:29.927Z,3.33
2022-08-17T11:00:17.623Z,3.03
2022-08-17T11:02:57.629Z,3.45
2022-08-17T11:06:12.774Z,3.35
2022-08-17T11:09:06.487Z,3.10
2022-08-17T11:12:31.211Z,3.35
2022-08-17T11:15:25.193Z,3.30
2022-08-17T11:18:19.999Z,3.08
2022-08-17T11:21:13.173Z,3.38
2022-08-17T11:24:16.761Z,3.45
2022-08-17T11:27:21.876Z,3.10
2022-08-17T11:30:12.561Z,2.92
2022-08-17T11:32:48.630Z,3.03
2022-08-17T11:35:20.821Z,3.40
2022-08-17T11:38:25.171Z,3.20
2022-08-17T11:41:29.342Z,3.45
2022-08-17T11:44:32.526Z,2.95
2022-08-17T11:48:16.378Z,3.13
2022-08-17T12:00:56.727Z,4.28
2022-08-17T12:03:33.496Z,3.08
2022-08-17T12:06:18.818Z,3.88
2022-08-17T12:09:00.555Z,3.47
2022-08-17T12:11:56.277Z,3.67
2022-08-17T12:15:05.893Z,4.25
2022-08-17T12:17:40.417Z,7.40
2022-08-17T12:23:08.749Z,4.07
2022-08-17T12:26:06.298Z,3.30
2022-08-17T12:28:44.100Z,3.40
2022-08-17T12:31:27.340Z,3.83
2022-08-17T12:33:55.520Z,3.65
2022-08-17T12:36:28.839Z,3.40
2022-08-17T12:39:13.306Z,3.67
2022-08-17T12:41:47.758Z,3.97
2022-08-17T12:44:30.048Z,3.83
2022-08-17T12:47:22.753Z,3.42
2022-08-17T12:50:03.785Z,3.72
2022-08-17T12:52:33.322Z,3.72
2022-08-17T12:55:07.875Z,4.00
2022-08-17T12:57:38.630Z,3.58
2022-08-17T13:00:22.103Z,3.53
2022-08-17T13:03:19.386Z,3.63
2022-08-17T13:05:53.040Z,3.60
2022-08-17T13:08:47.749Z,3.08
2022-08-17T13:11:16.472Z,3.75
2022-08-17T13:13:51.512Z,3.47
2022-08-17T13:16:26.656Z,3.47
2022-08-17T13:19:07.818Z,3.95
2022-08-17T13:21:38.001Z,3.63
2022-08-17T13:24:17.650Z,4.25
2022-08-17T13:27:11.895Z,3.63
2022-08-17T13:29:53.691Z,3.47
2022-08-17T13:32:46.603Z,3.90
2022-08-17T13:35:51.601Z,3.75
2022-08-17T13:38:51.154Z,3.28
2022-08-17T13:41:37.269Z,3.65
2022-08-17T13:44:39.493Z,3.83
2022-08-17T13:47:21.234Z,3.83
2022-08-17T13:49:49.635Z,3.95
2022-08-17T13:52:40.975Z,3.75
2022-08-17T13:55:22.166Z,4.20
2022-08-17T13:58:04.986Z,3.47
2022-08-17T14:00:36.755Z,4.15
2022-08-17T14:05:34.026Z,3.83
2022-08-17T14:08:07.222Z,4.03
2022-08-17T14:13:07.054Z,3.83
2022-08-17T14:15:56.154Z,3.85
2022-08-17T14:18:31.231Z,3.92
2022-08-17T14:21:10.924Z,4.30
2022-08-17T14:23:38.696Z,3.83
2022-08-17T14:26:06.702Z,4.78
2022-08-17T14:28:36.485Z,4.20
2022-08-17T14:31:07.492Z,3.83
2022-08-17T14:33:35.589Z,3.80
2022-08-17T14:36:04.688Z,4.05
2022-08-17T14:38:35.906Z,3.95
2022-08-17T14:41:05.065Z,4.07
2022-08-17T14:46:03.115Z,4.32
2022-08-17T14:48:38.459Z,4.32
2022-08-17T14:51:07.553Z,3.92
2022-08-17T14:53:36.468Z,3.63
2022-08-17T14:56:04.941Z,3.70
2022-08-17T14:58:32.752Z,4.05
2022-08-17T15:01:00.829Z,4.05
2022-08-17T15:03:29.462Z,4.03
2022-08-17T15:05:57.284Z,3.75
2022-08-17T15:08:25.526Z,3.50
2022-08-17T15:10:54.546Z,3.53
2022-08-17T15:13:26.467Z,3.95
2022-08-17T15:15:54.728Z,4.53
2022-08-17T15:18:22.929Z,3.63
2022-08-17T15:20:50.862Z,3.95
2022-08-17T15:23:22.624Z,3.33
2022-08-17T15:25:53.551Z,3.60
2022-08-17T15:28:25.064Z,4.00
2022-08-17T15:30:54.632Z,4.00
2022-08-17T15:33:30.181Z,3.90
2022-08-17T15:36:01.706Z,3.83
2022-08-17T15:38:35.340Z,4.60
2022-08-17T15:41:04.181Z,3.70
2022-08-17T15:43:36.460Z,3.78
2022-08-17T15:46:21.096Z,4.05
2022-08-17T15:48:53.083Z,3.92
2022-08-17T15:51:26.434Z,3.83
2022-08-17T15:54:04.403Z,3.75
2022-08-17T15:56:47.198Z,4.05
2022-08-17T15:59:16.590Z,4.00
2022-08-17T16:03:01.589Z,3.90
2022-08-17T16:04:32.409Z,3.92
2022-08-17T16:07:00.529Z,3.42
2022-08-17T16:09:28.789Z,4.00
2022-08-17T16:11:56.836Z,4.30
2022-08-17T16:14:34.812Z,3.70
2022-08-17T16:17:05.345Z,3.80
2022-08-17T16:19:53.251Z,4.40
2022-08-17T16:22:37.616Z,3.83
2022-08-17T16:25:21.546Z,3.75
2022-08-17T16:27:53.597Z,4.07
2022-08-17T16:30:27.844Z,4.03
2022-08-17T16:32:59.027Z,3.90
2022-08-17T16:35:29.713Z,4.47
2022-08-17T16:37:58.940Z,3.90
2022-08-17T16:40:33.097Z,3.90
2022-08-17T16:43:10.613Z,3.75
2022-08-17T16:45:40.811Z,4.00
2022-08-17T16:48:09.846Z,4.07
2022-08-17T16:50:37.956Z,4.20
2022-08-17T16:53:16.258Z,3.75
2022-08-17T16:55:49.682Z,4.60
2022-08-17T16:58:18.818Z,4.18
2022-08-17T17:00:48.876Z,4.10
2022-08-17T17:03:24.999Z,3.97
2022-08-17T17:06:45.245Z,3.90
2022-08-17T17:09:23.141Z,3.80
2022-08-17T17:11:57.243Z,3.90
2022-08-17T17:14:35.793Z,3.92
2022-08-17T17:17:17.610Z,4.25
2022-08-17T17:20:16.410Z,3.97
2022-08-17T17:22:57.900Z,4.20
2022-08-17T17:25:54.790Z,4.40
2022-08-17T17:28:44.344Z,4.22
2022-08-17T17:31:45.238Z,4.15
2022-08-17T17:34:16.703Z,4.35
2022-08-17T17:36:58.145Z,4.30
2022-08-17T17:39:49.114Z,4.80
2022-08-17T17:42:22.127Z,4.60
2022-08-17T17:45:17.051Z,4.38
2022-08-17T17:47:45.944Z,5.15
2022-08-17T17:50:16.993Z,5.78
2022-08-17T17:53:02.198Z,5.55
2022-08-17T17:55:30.034Z,4.57
2022-08-17T17:58:33.408Z,4.72
2022-08-17T18:01:16.191Z,4.88
2022-08-17T18:04:20.296Z,5.38
2022-08-17T18:06:57.774Z,5.55
2022-08-17T18:09:53.873Z,5.68
2022-08-17T18:13:17.953Z,5.13
2022-08-17T18:15:54.477Z,5.18
2022-08-17T18:18:38.923Z,4.70
2022-08-17T18:21:16.422Z,5.07
2022-08-17T18:24:01.931Z,6.82
2022-08-17T18:27:01.239Z,6.03
2022-08-17T18:29:31.962Z,5.60
2022-08-17T18:32:43.252Z,5.75
2022-08-17T18:35:14.749Z,5.80
2022-08-17T18:37:56.516Z,5.93
2022-08-17T18:40:35.758Z,5.85
2022-08-17T18:43:28.342Z,5.60
2022-08-17T18:49:06.875Z,5.55
2022-08-17T18:51:42.862Z,6.25
2022-08-17T18:54:24.613Z,6.20
2022-08-17T18:57:00.690Z,5.70
2022-08-17T19:05:27.214Z,5.30
2022-08-17T19:08:35.551Z,5.70
2022-08-17T19:11:20.799Z,6.18
2022-08-17T19:14:01.029Z,5.32
2022-08-17T19:16:55.761Z,5.78
2022-08-17T19:20:00.276Z,5.85
2022-08-17T19:22:47.290Z,5.60
2022-08-17T19:25:23.742Z,6.07
2022-08-17T19:28:20.503Z,5.82
2022-08-17T19:30:59.504Z,5.65
2022-08-17T19:33:27.634Z,5.75
2022-08-17T19:36:07.379Z,6.00
2022-08-17T19:38:48.449Z,6.28
2022-08-17T19:41:51.212Z,5.82
2022-08-17T19:44:32.242Z,6.38
2022-08-17T19:47:36.650Z,5.55
2022-08-17T19:50:09.295Z,6.05
2022-08-17T19:53:18.540Z,6.32
2022-08-17T19:56:11.235Z,5.68
2022-08-17T19:59:01.175Z,6.35
2022-08-17T20:02:02.985Z,6.03
2022-08-17T20:04:45.306Z,5.97
2022-08-17T20:07:22.230Z,6.15
2022-08-17T20:09:55.621Z,6.55
2022-08-17T20:12:38.373Z,6.18
2022-08-17T20:15:18.737Z,6.45
2022-08-17T20:17:48.191Z,6.03
2022-08-17T20:20:49.760Z,5.63
2022-08-17T20:23:28.773Z,6.13
2022-08-17T20:26:23.257Z,6.32
2022-08-17T20:29:10.402Z,6.22
2022-08-17T20:31:46.439Z,6.13
2022-08-17T20:34:33.477Z,6.75
2022-08-17T20:37:33.081Z,5.82
2022-08-17T20:40:01.158Z,6.25
2022-08-17T20:42:33.971Z,6.38
2022-08-17T20:45:26.494Z,5.72
2022-08-17T20:48:35.024Z,5.72
2022-08-17T20:51:01.086Z,6.00
2022-08-17T20:53:47.369Z,7.10
2022-08-17T20:56:46.662Z,6.20
2022-08-17T20:59:26.086Z,6.43
2022-08-17T21:02:12.353Z,6.07
2022-08-17T21:04:54.487Z,6.47
2022-08-17T21:07:53.268Z,6.43
2022-08-17T21:10:26.298Z,6.75
2022-08-17T21:13:03.038Z,6.05
2022-08-17T21:15:42.716Z,6.10
2022-08-17T21:18:42.760Z,6.25
2022-08-17T21:21:26.312Z,6.07
2022-08-17T21:24:15.003Z,6.30
2022-08-17T21:27:23.787Z,7.00
2022-08-17T21:30:16.374Z,6.00
2022-08-17T21:33:12.003Z,6.25
2022-08-17T21:36:11.831Z,5.90
2022-08-17T21:38:48.874Z,6.18
2022-08-17T21:41:33.560Z,6.35
2022-08-17T21:44:27.782Z,5.82
2022-08-17T21:47:23.972Z,6.32
2022-08-17T21:49:54.594Z,5.68
2022-08-17T21:52:27.107Z,5.97
2022-08-17T21:55:02.554Z,6.30
2022-08-17T21:57:35.132Z,6.63
2022-08-17T22:00:16.433Z,6.38
2022-08-17T22:02:56.600Z,6.10
2022-08-17T22:05:38.550Z,6.03
2022-08-17T22:08:20.129Z,5.90
2022-08-17T22:10:50.773Z,5.63
2022-08-17T22:13:18.515Z,5.38
2022-08-17T22:16:27.899Z,5.70
2022-08-17T22:18:58.295Z,6.18
2022-08-17T22:21:26.961Z,6.22
2022-08-17T22:24:07.101Z,6.07
2022-08-17T22:27:12.085Z,6.40
2022-08-17T22:29:58.276Z,6.07
2022-08-17T22:32:48.527Z,6.45
2022-08-17T22:35:34.590Z,6.45
2022-08-17T22:38:20.805Z,6.13
2022-08-17T22:41:18.969Z,6.18
2022-08-17T22:43:48.243Z,6.07
2022-08-17T22:46:16.321Z,5.78
2022-08-17T22:48:59.492Z,6.28
2022-08-17T22:51:31.133Z,6.65
2022-08-17T22:54:34.504Z,5.57
2022-08-17T22:57:23.847Z,5.85
2022-08-17T22:59:55.910Z,5.45
2022-08-17T23:02:26.586Z,5.50
2022-08-17T23:05:10.257Z,6.03
2022-08-17T23:07:38.409Z,6.20
2022-08-17T23:10:09.591Z,5.75
2022-08-17T23:12:39.062Z,6.32
2022-08-17T23:15:18.157Z,6.18
2022-08-17T23:17:46.510Z,6.07
2022-08-17T23:20:17.643Z,6.65
2022-08-17T23:22:51.921Z,6.85
2022-08-17T23:25:33.599Z,6.32
2022-08-17T23:28:04.901Z,5.80
2022-08-17T23:30:40.067Z,6.00
2022-08-17T23:33:21.348Z,5.63
2022-08-17T23:35:49.204Z,5.72
2022-08-17T23:38:17.252Z,7.90
2022-08-17T23:40:45.157Z,5.75
2022-08-17T23:43:23.975Z,5.68
2022-08-17T23:46:00.079Z,5.43
2022-08-17T23:48:36.224Z,6.00
2022-08-17T23:51:14.709Z,5.13
2022-08-17T23:53:48.247Z,5.88
2022-08-17T23:56:20.630Z,6.18
2022-08-17T23:58:48.466Z,5.80
